createdAt,value
2017-04-16T04:01:23.043Z,1013.91
2017-04-16T04:01:48.597Z,1013.93
2017-04-16T04:02:14.148Z,1013.89
2017-04-16T04:02:39.806Z,1013.92
2017-04-16T04:03:05.383Z,1013.89
2017-04-16T04:03:30.943Z,1013.89
2017-04-16T04:03:56.505Z,1013.9
2017-04-16T04:04:22.073Z,1013.94
2017-04-16T04:04:47.682Z,1013.91
2017-04-16T04:05:13.236Z,1013.94
2017-04-16T04:05:38.801Z,1013.96
2017-04-16T04:06:04.363Z,1013.94
2017-04-16T04:06:29.930Z,1013.97
2017-04-16T04:06:55.566Z,1013.95
2017-04-16T04:07:21.144Z,1013.96
2017-04-16T04:07:46.715Z,1014
2017-04-16T04:08:12.272Z,1013.95
2017-04-16T04:08:37.829Z,1013.97
2017-04-16T04:09:03.529Z,1013.94
2017-04-16T04:09:29.111Z,1013.98
2017-04-16T04:09:54.664Z,1014.02
2017-04-16T04:10:20.233Z,1014.01
2017-04-16T04:10:45.834Z,1014.05
2017-04-16T04:11:11.424Z,1014.08
2017-04-16T04:11:36.987Z,1014.02
2017-04-16T04:12:02.568Z,1014
2017-04-16T04:12:28.135Z,1014.07
2017-04-16T04:12:53.703Z,1014.07
2017-04-16T04:13:19.394Z,1014.09
2017-04-16T04:13:44.961Z,1014.08
2017-04-16T04:14:10.552Z,1014.07
2017-04-16T04:14:36.155Z,1014.11
2017-04-16T04:15:01.729Z,1014.13
2017-04-16T04:15:27.303Z,1014.09
2017-04-16T04:15:52.936Z,1014.18
2017-04-16T04:16:18.504Z,1014.19
2017-04-16T04:16:44.132Z,1014.15
2017-04-16T04:17:09.633Z,1014.18
2017-04-16T04:17:35.273Z,1014.13
2017-04-16T04:18:00.837Z,1014.14
2017-04-16T04:18:26.481Z,1014.15
2017-04-16T04:18:52.149Z,1014.17
2017-04-16T04:19:17.713Z,1014.11
2017-04-16T04:19:43.282Z,1014.1
2017-04-16T04:20:08.841Z,1014.14
2017-04-16T04:20:34.407Z,1014.09
2017-04-16T04:20:59.966Z,1014.09
2017-04-16T04:21:25.524Z,1014.12
2017-04-16T04:21:51.084Z,1014.11
2017-04-16T04:22:16.756Z,1014.07
2017-04-16T04:22:42.309Z,1014.09
2017-04-16T04:23:07.866Z,1014.11
2017-04-16T04:23:33.524Z,1014.1
2017-04-16T04:23:59.083Z,1014.09
2017-04-16T04:24:24.644Z,1014.1
2017-04-16T04:24:50.217Z,1014.06
2017-04-16T04:25:15.775Z,1014.11
2017-04-16T04:25:41.339Z,1014.08
2017-04-16T04:26:06.900Z,1014.13
2017-04-16T04:26:32.451Z,1014.11
2017-04-16T04:26:58.009Z,1014.14
2017-04-16T04:27:23.561Z,1014.13
2017-04-16T04:27:49.112Z,1014.13
2017-04-16T04:28:14.681Z,1014.11
2017-04-16T04:28:40.261Z,1014.12
2017-04-16T04:29:05.811Z,1014.19
2017-04-16T04:29:31.368Z,1014.12
2017-04-16T04:29:56.920Z,1014.12
2017-04-16T04:30:22.473Z,1014.14
2017-04-16T04:30:48.034Z,1014.15
2017-04-16T04:31:13.611Z,1014.12
2017-04-16T04:31:39.180Z,1014.13
2017-04-16T04:32:04.818Z,1014.1
2017-04-16T04:32:30.460Z,1014.18
2017-04-16T04:32:56.033Z,1014.14
2017-04-16T04:33:21.602Z,1014.16
2017-04-16T04:33:47.220Z,1014.17
2017-04-16T04:34:12.799Z,1014.19
2017-04-16T04:34:38.365Z,1014.12
2017-04-16T04:35:04.034Z,1014.16
2017-04-16T04:35:29.614Z,1014.15
2017-04-16T04:35:55.180Z,1014.15
2017-04-16T04:36:20.736Z,1014.19
2017-04-16T04:36:46.333Z,1014.19
2017-04-16T04:37:11.952Z,1014.17
2017-04-16T04:37:37.509Z,1014.22
2017-04-16T04:38:03.041Z,1014.17
2017-04-16T04:38:28.590Z,1014.17
2017-04-16T04:38:54.224Z,1014.2
2017-04-16T04:39:19.794Z,1014.2
2017-04-16T04:39:45.340Z,1014.24
2017-04-16T04:40:10.963Z,1014.23
2017-04-16T04:40:36.510Z,1014.21
2017-04-16T04:41:02.081Z,1014.27
2017-04-16T04:41:27.640Z,1014.25
2017-04-16T04:41:53.191Z,1014.29
2017-04-16T04:42:18.751Z,1014.27
2017-04-16T04:42:44.332Z,1014.27
2017-04-16T04:43:09.897Z,1014.3
2017-04-16T04:43:35.453Z,1014.31
2017-04-16T04:44:01.053Z,1014.36
2017-04-16T04:44:26.624Z,1014.26
2017-04-16T04:44:52.192Z,1014.28
2017-04-16T04:45:17.765Z,1014.34
2017-04-16T04:45:43.319Z,1014.31
2017-04-16T04:46:08.973Z,1014.36
2017-04-16T04:46:34.540Z,1014.33
2017-04-16T04:47:00.103Z,1014.3
2017-04-16T04:47:25.773Z,1014.33
2017-04-16T04:48:24.195Z,1014.34
2017-04-16T04:48:49.753Z,1014.36
2017-04-16T04:49:15.317Z,1014.36
2017-04-16T04:49:40.884Z,1014.43
2017-04-16T04:50:06.473Z,1014.42
2017-04-16T04:50:32.121Z,1014.42
2017-04-16T04:50:57.791Z,1014.41
2017-04-16T04:51:23.367Z,1014.46
2017-04-16T04:51:49.030Z,1014.45
2017-04-16T04:52:14.580Z,1014.46
2017-04-16T04:52:40.199Z,1014.43
2017-04-16T04:53:05.747Z,1014.49
2017-04-16T04:53:31.281Z,1014.44
2017-04-16T04:53:56.875Z,1014.48
2017-04-16T04:54:22.418Z,1014.5
2017-04-16T04:54:48.050Z,1014.51
2017-04-16T04:55:13.608Z,1014.47
2017-04-16T04:55:39.280Z,1014.5
2017-04-16T04:56:04.970Z,1014.51
2017-04-16T04:56:30.529Z,1014.48
2017-04-16T04:56:56.314Z,1014.48
2017-04-16T04:57:22.087Z,1014.51
2017-04-16T04:57:47.659Z,1014.49
2017-04-16T04:58:13.344Z,1014.47
2017-04-16T04:58:38.983Z,1014.47
2017-04-16T04:59:04.553Z,1014.54
2017-04-16T04:59:30.258Z,1014.52
2017-04-16T04:59:55.851Z,1014.49
2017-04-16T05:00:21.509Z,1014.5
2017-04-16T05:00:47.105Z,1014.52
2017-04-16T05:01:12.665Z,1014.57
2017-04-16T05:01:38.284Z,1014.55
2017-04-16T05:02:04.025Z,1014.58
2017-04-16T05:02:29.604Z,1014.56
2017-04-16T05:02:55.195Z,1014.55
2017-04-16T05:03:20.794Z,1014.57
2017-04-16T05:03:46.409Z,1014.58
2017-04-16T05:04:11.975Z,1014.6
2017-04-16T05:04:37.533Z,1014.58
2017-04-16T05:05:03.255Z,1014.55
2017-04-16T05:05:28.815Z,1014.59
2017-04-16T05:05:54.857Z,1014.62
2017-04-16T05:06:20.514Z,1014.63
2017-04-16T05:06:46.111Z,1014.59
2017-04-16T05:07:11.684Z,1014.66
2017-04-16T05:07:37.341Z,1014.57
2017-04-16T05:08:02.919Z,1014.61
2017-04-16T05:08:28.507Z,1014.63
2017-04-16T05:08:54.183Z,1014.66
2017-04-16T05:09:19.743Z,1014.66
2017-04-16T05:09:45.392Z,1014.69
2017-04-16T05:10:10.973Z,1014.68
2017-04-16T05:10:36.554Z,1014.68
2017-04-16T05:11:02.203Z,1014.68
2017-04-16T05:11:27.760Z,1014.7
2017-04-16T05:11:53.388Z,1014.67
2017-04-16T05:12:18.961Z,1014.68
2017-04-16T05:12:44.520Z,1014.73
2017-04-16T05:13:10.213Z,1014.7
2017-04-16T05:13:35.760Z,1014.7
2017-04-16T05:14:01.376Z,1014.7
2017-04-16T05:14:27.100Z,1014.74
2017-04-16T05:14:52.566Z,1014.71
2017-04-16T05:15:18.226Z,1014.71
2017-04-16T05:15:43.794Z,1014.76
2017-04-16T05:16:09.433Z,1014.7
2017-04-16T05:16:35.024Z,1014.71
2017-04-16T05:17:01.747Z,1014.68
2017-04-16T05:17:27.369Z,1014.71
2017-04-16T05:17:52.919Z,1014.72
2017-04-16T05:18:18.474Z,1014.71
2017-04-16T05:18:44.064Z,1014.71
2017-04-16T05:19:09.615Z,1014.71
2017-04-16T05:19:35.164Z,1014.69
2017-04-16T05:20:00.710Z,1014.7
2017-04-16T05:20:26.262Z,1014.7
2017-04-16T05:20:51.951Z,1014.74
2017-04-16T05:21:17.499Z,1014.77
2017-04-16T05:21:43.071Z,1014.77
2017-04-16T05:22:08.627Z,1014.72
2017-04-16T05:22:34.193Z,1014.81
2017-04-16T05:22:59.754Z,1014.8
2017-04-16T05:23:25.315Z,1014.79
2017-04-16T05:23:50.879Z,1014.81
2017-04-16T05:24:16.451Z,1014.77
2017-04-16T05:24:42.119Z,1014.85
2017-04-16T05:25:07.668Z,1014.76
2017-04-16T05:25:33.218Z,1014.83
2017-04-16T05:25:58.788Z,1014.8
2017-04-16T05:26:24.338Z,1014.76
2017-04-16T05:26:49.932Z,1014.74
2017-04-16T05:27:15.557Z,1014.81
2017-04-16T05:27:41.140Z,1014.81
2017-04-16T05:28:06.689Z,1014.76
2017-04-16T05:28:32.253Z,1014.83
2017-04-16T05:28:57.825Z,1014.82
2017-04-16T05:29:23.386Z,1014.83
2017-04-16T05:29:48.967Z,1014.84
2017-04-16T05:30:14.537Z,1014.79
2017-04-16T05:30:40.103Z,1014.85
2017-04-16T05:31:05.660Z,1014.79
2017-04-16T05:31:31.231Z,1014.82
2017-04-16T05:31:56.805Z,1014.74
2017-04-16T05:32:22.473Z,1014.8
2017-04-16T05:32:48.044Z,1014.77
2017-04-16T05:33:13.600Z,1014.77
2017-04-16T05:33:39.181Z,1014.78
2017-04-16T05:34:04.740Z,1014.82
2017-04-16T05:34:30.313Z,1014.83
2017-04-16T05:34:55.917Z,1014.85
2017-04-16T05:35:21.570Z,1014.81
2017-04-16T05:35:47.157Z,1014.87
2017-04-16T05:36:12.719Z,1014.83
2017-04-16T05:36:38.471Z,1014.84
2017-04-16T05:37:04.038Z,1014.86
2017-04-16T05:37:29.601Z,1014.85
2017-04-16T05:37:55.163Z,1014.89
2017-04-16T05:38:20.724Z,1014.85
2017-04-16T05:38:46.285Z,1014.89
2017-04-16T05:39:11.893Z,1014.91
2017-04-16T05:39:37.460Z,1014.91
2017-04-16T05:40:03.054Z,1014.91
2017-04-16T05:40:28.604Z,1014.95
2017-04-16T05:40:54.173Z,1014.94
2017-04-16T05:41:19.823Z,1014.88
2017-04-16T05:41:45.383Z,1014.9
2017-04-16T05:42:10.944Z,1014.85
2017-04-16T05:42:36.513Z,1014.94
2017-04-16T05:43:02.077Z,1014.96
2017-04-16T05:43:27.655Z,1014.91
2017-04-16T05:43:53.214Z,1014.95
2017-04-16T05:44:18.761Z,1014.96
2017-04-16T05:44:44.335Z,1014.93
2017-04-16T05:45:09.927Z,1014.93
2017-04-16T05:45:35.504Z,1014.96
2017-04-16T05:46:01.071Z,1014.94
2017-04-16T05:46:26.654Z,1014.98
2017-04-16T05:46:52.221Z,1014.94
2017-04-16T05:47:17.764Z,1014.91
2017-04-16T05:47:43.339Z,1015.02
2017-04-16T05:48:08.896Z,1014.98
2017-04-16T05:48:34.452Z,1015
2017-04-16T05:49:00.022Z,1014.99
2017-04-16T05:49:25.594Z,1015.01
2017-04-16T05:49:51.173Z,1015.02
2017-04-16T05:50:16.757Z,1015.04
2017-04-16T05:50:42.306Z,1014.96
2017-04-16T05:51:07.960Z,1015.01
2017-04-16T05:51:33.545Z,1014.98
2017-04-16T05:51:59.108Z,1014.99
2017-04-16T05:52:24.660Z,1014.99
2017-04-16T05:52:50.259Z,1014.99
2017-04-16T05:53:15.817Z,1014.99
2017-04-16T05:53:41.381Z,1015.02
2017-04-16T05:54:06.984Z,1014.99
2017-04-16T05:54:32.537Z,1015.05
2017-04-16T05:54:58.117Z,1015.07
2017-04-16T05:55:23.674Z,1015.05
2017-04-16T05:55:49.236Z,1015.04
2017-04-16T05:56:14.805Z,1015.04
2017-04-16T05:56:40.353Z,1015.08
2017-04-16T05:57:05.909Z,1015.01
2017-04-16T05:57:31.520Z,1015.06
2017-04-16T05:57:57.104Z,1015.04
2017-04-16T05:58:22.724Z,1015.03
2017-04-16T05:58:48.285Z,1015.01
2017-04-16T05:59:13.844Z,1015.04
2017-04-16T05:59:39.466Z,1015.02
2017-04-16T06:00:05.123Z,1015.05
2017-04-16T06:00:30.678Z,1015.09
2017-04-16T06:01:49.636Z,1015.06
2017-04-16T06:02:15.197Z,1015.08
2017-04-16T06:02:40.783Z,1015.04
2017-04-16T06:03:06.333Z,1015.05
2017-04-16T06:03:31.898Z,1015.09
2017-04-16T06:03:57.435Z,1015.05
2017-04-16T06:04:23.092Z,1015.1
2017-04-16T06:04:48.673Z,1015.08
2017-04-16T06:05:14.243Z,1015.08
2017-04-16T06:05:39.775Z,1015.05
2017-04-16T06:06:05.495Z,1015.09
2017-04-16T06:06:31.044Z,1015.02
2017-04-16T06:06:56.600Z,1015.03
2017-04-16T06:07:22.284Z,1015.01
2017-04-16T06:07:47.849Z,1015.04
2017-04-16T06:08:13.441Z,1015.01
2017-04-16T06:08:38.981Z,1015.07
2017-04-16T06:09:04.614Z,1015.04
2017-04-16T06:09:30.200Z,1015.09
2017-04-16T06:09:55.855Z,1015.07
2017-04-16T06:10:21.497Z,1015.05
2017-04-16T06:10:47.073Z,1015.04
2017-04-16T06:11:12.621Z,1015.06
2017-04-16T06:11:38.310Z,1015.07
2017-04-16T06:12:03.873Z,1015.06
2017-04-16T06:12:29.434Z,1015.1
2017-04-16T06:12:54.983Z,1015.09
2017-04-16T06:13:20.578Z,1015.19
2017-04-16T06:13:46.304Z,1015.17
2017-04-16T06:14:11.861Z,1015.21
2017-04-16T06:14:37.543Z,1015.21
2017-04-16T06:15:03.094Z,1015.23
2017-04-16T06:15:28.634Z,1015.28
2017-04-16T06:15:54.304Z,1015.24
2017-04-16T06:16:19.844Z,1015.27
2017-04-16T06:16:45.451Z,1015.29
2017-04-16T06:17:11.003Z,1015.26
2017-04-16T06:17:36.563Z,1015.28
2017-04-16T06:18:02.127Z,1015.17
2017-04-16T06:18:27.713Z,1015.18
2017-04-16T06:18:53.296Z,1015.2
2017-04-16T06:19:18.914Z,1015.24
2017-04-16T06:19:44.534Z,1015.2
2017-04-16T06:20:10.104Z,1015.18
2017-04-16T06:20:35.703Z,1015.1
2017-04-16T06:21:01.284Z,1015.12
2017-04-16T06:21:26.835Z,1015.1
2017-04-16T06:21:52.398Z,1015.04
2017-04-16T06:22:18.059Z,1015.2
2017-04-16T06:22:43.627Z,1015.14
2017-04-16T06:23:09.213Z,1015.18
2017-04-16T06:23:34.884Z,1015.15
2017-04-16T06:24:00.493Z,1015.19
2017-04-16T06:24:26.064Z,1015.21
2017-04-16T06:24:51.609Z,1015.24
2017-04-16T06:25:17.192Z,1015.25
2017-04-16T06:25:42.765Z,1015.27
2017-04-16T06:26:08.326Z,1015.3
2017-04-16T06:26:33.901Z,1015.22
2017-04-16T06:26:59.466Z,1015.22
2017-04-16T06:27:25.027Z,1015.24
2017-04-16T06:27:50.601Z,1015.25
2017-04-16T06:28:16.175Z,1015.27
2017-04-16T06:28:41.743Z,1015.3
2017-04-16T06:29:07.304Z,1015.28
2017-04-16T06:29:32.866Z,1015.28
2017-04-16T06:29:58.460Z,1015.29
2017-04-16T06:30:24.027Z,1015.31
2017-04-16T06:30:49.588Z,1015.28
2017-04-16T06:31:15.161Z,1015.26
2017-04-16T06:31:40.727Z,1015.29
2017-04-16T06:32:06.280Z,1015.26
2017-04-16T06:32:31.833Z,1015.3
2017-04-16T06:32:57.371Z,1015.31
2017-04-16T06:33:22.933Z,1015.27
2017-04-16T06:33:48.501Z,1015.26
2017-04-16T06:34:14.050Z,1015.29
2017-04-16T06:34:39.592Z,1015.27
2017-04-16T06:35:05.134Z,1015.28
2017-04-16T06:35:30.706Z,1015.29
2017-04-16T06:35:56.331Z,1015.3
2017-04-16T06:36:21.873Z,1015.29
2017-04-16T06:36:47.423Z,1015.35
2017-04-16T06:37:12.971Z,1015.33
2017-04-16T06:37:38.510Z,1015.31
2017-04-16T06:38:04.152Z,1015.33
2017-04-16T06:38:29.713Z,1015.31
2017-04-16T06:38:55.283Z,1015.36
2017-04-16T06:39:20.847Z,1015.36
2017-04-16T06:39:46.655Z,1015.39
2017-04-16T06:40:12.217Z,1015.36
2017-04-16T06:40:37.819Z,1015.4
2017-04-16T06:41:03.364Z,1015.34
2017-04-16T06:41:28.921Z,1015.35
2017-04-16T06:41:54.506Z,1015.4
2017-04-16T06:42:20.060Z,1015.33
2017-04-16T06:42:45.644Z,1015.39
2017-04-16T06:43:11.206Z,1015.38
2017-04-16T06:43:36.793Z,1015.4
2017-04-16T06:44:02.350Z,1015.42
2017-04-16T06:44:27.900Z,1015.47
2017-04-16T06:44:53.506Z,1015.43
2017-04-16T06:45:19.070Z,1015.4
2017-04-16T06:45:44.647Z,1015.43
2017-04-16T06:46:10.273Z,1015.42
2017-04-16T06:46:35.830Z,1015.47
2017-04-16T06:47:01.404Z,1015.42
2017-04-16T06:47:26.972Z,1015.45
2017-04-16T06:47:52.531Z,1015.42
2017-04-16T06:48:18.094Z,1015.47
2017-04-16T06:48:43.658Z,1015.47
2017-04-16T06:49:09.230Z,1015.47
2017-04-16T06:49:34.798Z,1015.45
2017-04-16T06:50:00.410Z,1015.5
2017-04-16T06:50:25.986Z,1015.47
2017-04-16T06:50:51.560Z,1015.44
2017-04-16T06:51:17.132Z,1015.51
2017-04-16T06:51:42.704Z,1015.5
2017-04-16T06:52:08.264Z,1015.5
2017-04-16T06:52:33.826Z,1015.49
2017-04-16T06:52:59.392Z,1015.51
2017-04-16T06:53:25.016Z,1015.48
2017-04-16T06:53:50.684Z,1015.44
2017-04-16T06:54:16.262Z,1015.44
2017-04-16T06:54:41.842Z,1015.48
2017-04-16T06:55:07.476Z,1015.51
2017-04-16T06:55:33.045Z,1015.53
2017-04-16T06:55:58.603Z,1015.5
2017-04-16T06:56:24.176Z,1015.5
2017-04-16T06:56:49.732Z,1015.54
2017-04-16T06:57:15.293Z,1015.53
2017-04-16T06:57:40.845Z,1015.5
2017-04-16T06:58:06.414Z,1015.51
2017-04-16T06:58:32.056Z,1015.49
2017-04-16T06:58:57.635Z,1015.48
2017-04-16T06:59:23.204Z,1015.54
2017-04-16T06:59:48.899Z,1015.51
2017-04-16T07:00:14.450Z,1015.51
2017-04-16T07:00:40.003Z,1015.58
2017-04-16T07:01:05.574Z,1015.54
2017-04-16T07:01:31.144Z,1015.52
2017-04-16T07:01:56.761Z,1015.6
2017-04-16T07:02:22.331Z,1015.54
2017-04-16T07:02:47.900Z,1015.56
2017-04-16T07:03:13.452Z,1015.56
2017-04-16T07:03:39.006Z,1015.59
2017-04-16T07:04:04.584Z,1015.6
2017-04-16T07:04:30.154Z,1015.61
2017-04-16T07:04:55.714Z,1015.58
2017-04-16T07:05:21.281Z,1015.55
2017-04-16T07:05:46.847Z,1015.59
2017-04-16T07:06:12.421Z,1015.6
2017-04-16T07:06:38.008Z,1015.6
2017-04-16T07:07:03.592Z,1015.61
2017-04-16T07:07:29.163Z,1015.6
2017-04-16T07:07:54.711Z,1015.58
2017-04-16T07:08:20.286Z,1015.53
2017-04-16T07:08:45.863Z,1015.58
2017-04-16T07:09:11.428Z,1015.61
2017-04-16T07:09:36.993Z,1015.63
2017-04-16T07:10:02.583Z,1015.58
2017-04-16T07:10:28.138Z,1015.57
2017-04-16T07:10:53.715Z,1015.61
2017-04-16T07:11:19.276Z,1015.65
2017-04-16T07:11:44.896Z,1015.64
2017-04-16T07:12:10.475Z,1015.66
2017-04-16T07:12:36.142Z,1015.67
2017-04-16T07:13:01.689Z,1015.67
2017-04-16T07:13:27.253Z,1015.59
2017-04-16T07:13:52.806Z,1015.64
2017-04-16T07:14:18.364Z,1015.69
2017-04-16T07:14:43.953Z,1015.68
2017-04-16T07:15:09.523Z,1015.71
2017-04-16T07:15:35.099Z,1015.64
2017-04-16T07:16:00.669Z,1015.62
2017-04-16T07:16:26.246Z,1015.6
2017-04-16T07:16:51.801Z,1015.63
2017-04-16T07:17:17.393Z,1015.63
2017-04-16T07:17:42.977Z,1015.64
2017-04-16T07:18:08.523Z,1015.62
2017-04-16T07:18:34.100Z,1015.65
2017-04-16T07:18:59.699Z,1015.64
2017-04-16T07:19:25.264Z,1015.7
2017-04-16T07:19:51.038Z,1015.67
2017-04-16T07:20:16.616Z,1015.61
2017-04-16T07:20:42.190Z,1015.66
2017-04-16T07:21:07.764Z,1015.66
2017-04-16T07:21:33.334Z,1015.63
2017-04-16T07:21:58.903Z,1015.66
2017-04-16T07:22:24.535Z,1015.65
2017-04-16T07:22:50.105Z,1015.69
2017-04-16T07:23:15.664Z,1015.68
2017-04-16T07:23:41.265Z,1015.71
2017-04-16T07:24:06.863Z,1015.75
2017-04-16T07:24:32.501Z,1015.68
2017-04-16T07:24:58.062Z,1015.7
2017-04-16T07:25:23.638Z,1015.71
2017-04-16T07:25:49.338Z,1015.66
2017-04-16T07:26:14.903Z,1015.66
2017-04-16T07:26:40.488Z,1015.69
2017-04-16T07:27:06.045Z,1015.69
2017-04-16T07:27:31.629Z,1015.76
2017-04-16T07:27:57.199Z,1015.76
2017-04-16T07:28:22.764Z,1015.72
2017-04-16T07:28:48.337Z,1015.66
2017-04-16T07:29:13.915Z,1015.74
2017-04-16T07:29:39.514Z,1015.72
2017-04-16T07:30:05.090Z,1015.74
2017-04-16T07:30:30.660Z,1015.74
2017-04-16T07:30:56.317Z,1015.75
2017-04-16T07:31:21.887Z,1015.75
2017-04-16T07:31:47.454Z,1015.75
2017-04-16T07:32:13.012Z,1015.77
2017-04-16T07:32:38.632Z,1015.77
2017-04-16T07:33:04.196Z,1015.77
2017-04-16T07:33:29.769Z,1015.81
2017-04-16T07:33:55.325Z,1015.77
2017-04-16T07:34:20.890Z,1015.71
2017-04-16T07:34:46.483Z,1015.75
2017-04-16T07:35:12.040Z,1015.75
2017-04-16T07:35:37.608Z,1015.77
2017-04-16T07:36:03.187Z,1015.76
2017-04-16T07:36:28.754Z,1015.78
2017-04-16T07:36:54.330Z,1015.82
2017-04-16T07:37:19.896Z,1015.79
2017-04-16T07:37:45.454Z,1015.78
2017-04-16T07:38:11.022Z,1015.77
2017-04-16T07:38:36.659Z,1015.78
2017-04-16T07:39:02.238Z,1015.8
2017-04-16T07:39:27.811Z,1015.8
2017-04-16T07:39:53.554Z,1015.82
2017-04-16T07:40:19.114Z,1015.8
2017-04-16T07:40:44.693Z,1015.76
2017-04-16T07:41:10.274Z,1015.77
2017-04-16T07:41:35.835Z,1015.78
2017-04-16T07:42:01.414Z,1015.78
2017-04-16T07:42:26.987Z,1015.82
2017-04-16T07:42:52.562Z,1015.78
2017-04-16T07:43:18.138Z,1015.79
2017-04-16T07:43:43.744Z,1015.77
2017-04-16T07:44:09.321Z,1015.76
2017-04-16T07:44:34.963Z,1015.8
2017-04-16T07:45:00.533Z,1015.83
2017-04-16T07:45:26.082Z,1015.77
2017-04-16T07:45:51.677Z,1015.81
2017-04-16T07:46:17.249Z,1015.81
2017-04-16T07:46:42.802Z,1015.77
2017-04-16T07:47:08.373Z,1015.79
2017-04-16T07:47:33.960Z,1015.79
2017-04-16T07:47:59.527Z,1015.82
2017-04-16T07:48:25.112Z,1015.78
2017-04-16T07:48:50.667Z,1015.79
2017-04-16T07:49:16.231Z,1015.81
2017-04-16T07:49:41.812Z,1015.8
2017-04-16T07:50:07.398Z,1015.82
2017-04-16T07:50:32.956Z,1015.83
2017-04-16T07:50:58.541Z,1015.81
2017-04-16T07:51:24.169Z,1015.85
2017-04-16T07:51:49.847Z,1015.86
2017-04-16T07:52:15.412Z,1015.89
2017-04-16T07:52:41.054Z,1015.89
2017-04-16T07:53:06.611Z,1015.91
2017-04-16T07:53:32.182Z,1015.87
2017-04-16T07:53:57.742Z,1015.88
2017-04-16T07:54:23.414Z,1015.9
2017-04-16T07:54:48.973Z,1015.86
2017-04-16T07:55:14.564Z,1015.88
2017-04-16T07:55:40.251Z,1015.9
2017-04-16T07:56:05.796Z,1015.96
2017-04-16T07:56:31.366Z,1015.92
2017-04-16T07:56:56.984Z,1015.89
2017-04-16T07:57:22.642Z,1015.93
2017-04-16T07:57:48.233Z,1015.93
2017-04-16T07:58:13.786Z,1015.92
2017-04-16T07:58:39.373Z,1015.92
2017-04-16T07:59:04.980Z,1015.91
2017-04-16T07:59:30.564Z,1015.92
2017-04-16T07:59:56.244Z,1016
2017-04-16T08:00:21.809Z,1015.93
2017-04-16T08:00:47.376Z,1016.01
2017-04-16T08:01:12.957Z,1015.97
2017-04-16T08:01:38.535Z,1016.02
2017-04-16T08:02:04.104Z,1016.02
2017-04-16T08:02:29.666Z,1016.04
2017-04-16T08:02:55.223Z,1016.07
2017-04-16T08:03:20.870Z,1016.01
2017-04-16T08:03:46.433Z,1016.08
2017-04-16T08:04:11.990Z,1016.08
2017-04-16T08:04:37.535Z,1016.02
2017-04-16T08:05:03.104Z,1016.04
2017-04-16T08:05:28.644Z,1015.99
2017-04-16T08:05:54.241Z,1015.98
2017-04-16T08:06:19.803Z,1015.94
2017-04-16T08:06:45.358Z,1015.95
2017-04-16T08:07:10.938Z,1016.03
2017-04-16T08:07:36.503Z,1016
2017-04-16T08:08:02.055Z,1016.04
2017-04-16T08:08:27.635Z,1016.05
2017-04-16T08:08:53.224Z,1016.04
2017-04-16T08:09:18.784Z,1016.04
2017-04-16T08:09:44.370Z,1016.06
2017-04-16T08:10:09.948Z,1016.02
2017-04-16T08:10:35.516Z,1016.03
2017-04-16T08:11:01.111Z,1016.03
2017-04-16T08:11:26.784Z,1016.05
2017-04-16T08:11:52.354Z,1016.03
2017-04-16T08:12:17.989Z,1016.04
2017-04-16T08:12:43.555Z,1016.07
2017-04-16T08:13:09.115Z,1016.08
2017-04-16T08:13:34.697Z,1016.06
2017-04-16T08:14:00.382Z,1016.06
2017-04-16T08:14:25.971Z,1016.06
2017-04-16T08:14:51.539Z,1016.05
2017-04-16T08:15:17.212Z,1016.05
2017-04-16T08:15:42.777Z,1016.02
2017-04-16T08:16:08.355Z,1016.01
2017-04-16T08:16:33.914Z,1016.02
2017-04-16T08:16:59.499Z,1016.05
2017-04-16T08:17:25.074Z,1016.03
2017-04-16T08:17:50.634Z,1016.02
2017-04-16T08:18:16.223Z,1016.04
2017-04-16T08:18:41.777Z,1016.08
2017-04-16T08:19:07.322Z,1016.03
2017-04-16T08:19:32.919Z,1015.97
2017-04-16T08:19:58.501Z,1016.07
2017-04-16T08:20:24.081Z,1016.07
2017-04-16T08:20:49.731Z,1016.07
2017-04-16T08:21:15.294Z,1016.09
2017-04-16T08:21:40.867Z,1016.08
2017-04-16T08:22:06.434Z,1016.06
2017-04-16T08:22:31.995Z,1016.12
2017-04-16T08:22:57.559Z,1016.09
2017-04-16T08:23:23.121Z,1016.1
2017-04-16T08:23:48.684Z,1016.08
2017-04-16T08:24:14.344Z,1016.09
2017-04-16T08:24:39.913Z,1016.06
2017-04-16T08:25:05.499Z,1016.06
2017-04-16T08:25:31.048Z,1016.08
2017-04-16T08:25:56.618Z,1016.12
2017-04-16T08:26:22.200Z,1016.09
2017-04-16T08:26:47.781Z,1016.07
2017-04-16T08:27:13.343Z,1016.08
2017-04-16T08:27:38.908Z,1016.11
2017-04-16T08:28:04.483Z,1016.14
2017-04-16T08:28:30.063Z,1016.09
2017-04-16T08:28:55.643Z,1016.12
2017-04-16T08:29:21.223Z,1016.18
2017-04-16T08:29:46.792Z,1016.12
2017-04-16T08:30:12.380Z,1016.15
2017-04-16T08:30:37.984Z,1016.14
2017-04-16T08:31:03.545Z,1016.12
2017-04-16T08:31:29.126Z,1016.16
2017-04-16T08:31:54.702Z,1016.17
2017-04-16T08:32:20.322Z,1016.16
2017-04-16T08:32:45.887Z,1016.16
2017-04-16T08:33:11.473Z,1016.18
2017-04-16T08:33:37.033Z,1016.14
2017-04-16T08:34:02.605Z,1016.23
2017-04-16T08:34:28.165Z,1016.18
2017-04-16T08:34:53.752Z,1016.26
2017-04-16T08:35:19.322Z,1016.24
2017-04-16T08:35:44.885Z,1016.28
2017-04-16T08:36:10.462Z,1016.23
2017-04-16T08:36:36.069Z,1016.21
2017-04-16T08:37:01.681Z,1016.22
2017-04-16T08:37:27.259Z,1016.27
2017-04-16T08:37:52.832Z,1016.25
2017-04-16T08:38:18.390Z,1016.2
2017-04-16T08:38:43.977Z,1016.22
2017-04-16T08:39:09.551Z,1016.29
2017-04-16T08:39:35.124Z,1016.34
2017-04-16T08:40:00.697Z,1016.38
2017-04-16T08:40:26.253Z,1016.33
2017-04-16T08:40:51.805Z,1016.34
2017-04-16T08:41:17.371Z,1016.41
2017-04-16T08:41:42.928Z,1016.51
2017-04-16T08:42:08.494Z,1016.59
2017-04-16T08:42:34.056Z,1016.51
2017-04-16T08:42:59.625Z,1016.51
2017-04-16T08:43:25.180Z,1016.55
2017-04-16T08:43:50.758Z,1016.5
2017-04-16T08:44:16.376Z,1016.52
2017-04-16T08:44:42.007Z,1016.6
2017-04-16T08:45:07.578Z,1016.57
2017-04-16T08:45:33.142Z,1016.55
2017-04-16T08:45:58.760Z,1016.51
2017-04-16T08:46:24.348Z,1016.48
2017-04-16T08:46:49.981Z,1016.49
2017-04-16T08:47:15.535Z,1016.59
2017-04-16T08:47:41.084Z,1016.52
2017-04-16T08:48:06.640Z,1016.53
2017-04-16T08:48:32.235Z,1016.53
2017-04-16T08:48:57.800Z,1016.46
2017-04-16T08:49:23.421Z,1016.5
2017-04-16T08:49:48.971Z,1016.52
2017-04-16T08:50:14.552Z,1016.54
2017-04-16T08:50:40.188Z,1016.57
2017-04-16T08:51:05.789Z,1016.59
2017-04-16T08:51:31.353Z,1016.54
2017-04-16T08:51:56.933Z,1016.57
2017-04-16T08:52:22.633Z,1016.6
2017-04-16T08:52:48.202Z,1016.57
2017-04-16T08:53:13.758Z,1016.61
2017-04-16T08:53:39.387Z,1016.59
2017-04-16T08:54:04.955Z,1016.52
2017-04-16T08:54:30.521Z,1016.55
2017-04-16T08:54:56.177Z,1016.55
2017-04-16T08:55:21.760Z,1016.55
2017-04-16T08:55:47.331Z,1016.52
2017-04-16T08:56:12.936Z,1016.57
2017-04-16T08:56:38.485Z,1016.56
2017-04-16T08:57:04.055Z,1016.55
2017-04-16T08:57:29.601Z,1016.53
2017-04-16T08:57:55.149Z,1016.53
2017-04-16T08:58:20.720Z,1016.55
2017-04-16T08:58:46.300Z,1016.54
2017-04-16T08:59:11.879Z,1016.56
2017-04-16T08:59:37.452Z,1016.58
2017-04-16T09:00:03.074Z,1016.53
2017-04-16T09:00:28.672Z,1016.52
2017-04-16T09:00:54.245Z,1016.52
2017-04-16T09:01:19.794Z,1016.54
2017-04-16T09:01:45.355Z,1016.55
2017-04-16T09:02:10.924Z,1016.53
2017-04-16T09:02:36.541Z,1016.54
2017-04-16T09:03:02.155Z,1016.5
2017-04-16T09:03:27.717Z,1016.51
2017-04-16T09:03:53.335Z,1016.49
2017-04-16T09:04:18.950Z,1016.5
2017-04-16T09:04:44.517Z,1016.53
2017-04-16T09:05:10.086Z,1016.53
2017-04-16T09:05:35.677Z,1016.52
2017-04-16T09:06:01.254Z,1016.53
2017-04-16T09:06:26.822Z,1016.53
2017-04-16T09:06:52.420Z,1016.53
2017-04-16T09:07:18.001Z,1016.5
2017-04-16T09:07:43.574Z,1016.52
2017-04-16T09:08:09.155Z,1016.46
2017-04-16T09:08:34.713Z,1016.54
2017-04-16T09:09:00.351Z,1016.49
2017-04-16T09:09:25.938Z,1016.49
2017-04-16T09:09:51.502Z,1016.46
2017-04-16T09:10:17.094Z,1016.5
2017-04-16T09:10:42.728Z,1016.45
2017-04-16T09:11:08.300Z,1016.47
2017-04-16T09:11:33.854Z,1016.5
2017-04-16T09:11:59.432Z,1016.46
2017-04-16T09:12:25.007Z,1016.46
2017-04-16T09:12:50.572Z,1016.47
2017-04-16T09:13:16.275Z,1016.49